sensor_id;sensor_type;location;lat;lon;timestamp;pressure;altitude;pressure_sealevel;temperature;humidity
18850;BME280;4989;48.772;9.154;2023-04-07T00:04:08;98009.41;;;9.44;84.78
18850;BME280;4989;48.772;9.154;2023-04-07T00:09:11;98009.44;;;9.40;86.39
18850;BME280;4989;48.772;9.154;2023-04-07T00:14:14;98006.78;;;9.60;85.46
18850;BME280;4989;48.772;9.154;2023-04-07T00:19:17;97999.69;;;9.90;83.32
18850;BME280;4989;48.772;9.154;2023-04-07T00:24:20;97998.69;;;10.00;83.62
18850;BME280;4989;48.772;9.154;2023-04-07T00:29:35;97982.88;;;9.95;82.96
18850;BME280;4989;48.772;9.154;2023-04-07T00:34:37;97981.91;;;9.66;86.02
18850;BME280;4989;48.772;9.154;2023-04-07T00:39:40;97966.56;;;9.55;87.75
18850;BME280;4989;48.772;9.154;2023-04-07T00:44:43;97964.78;;;9.69;87.65
18850;BME280;4989;48.772;9.154;2023-04-07T00:49:45;97976.41;;;9.22;89.10
18850;BME280;4989;48.772;9.154;2023-04-07T00:54:48;97961.97;;;9.52;87.00
18850;BME280;4989;48.772;9.154;2023-04-07T00:59:52;97947.44;;;8.92;91.61
18850;BME280;4989;48.772;9.154;2023-04-07T01:10:18;97944.44;;;8.86;90.71
18850;BME280;4989;48.772;9.154;2023-04-07T01:15:30;97930.38;;;8.95;91.88
18850;BME280;4989;48.772;9.154;2023-04-07T01:20:36;97927.22;;;8.15;96.73
18850;BME280;4989;48.772;9.154;2023-04-07T01:26:03;97922.63;;;8.43;94.32
18850;BME280;4989;48.772;9.154;2023-04-07T01:31:11;97920.63;;;8.16;97.16
18850;BME280;4989;48.772;9.154;2023-04-07T01:36:16;97916.41;;;8.46;94.88
18850;BME280;4989;48.772;9.154;2023-04-07T01:41:21;97914.34;;;7.96;99.05
18850;BME280;4989;48.772;9.154;2023-04-07T01:46:24;97905.88;;;8.21;98.26
18850;BME280;4989;48.772;9.154;2023-04-07T01:51:28;97898.72;;;8.88;92.15
18850;BME280;4989;48.772;9.154;2023-04-07T01:56:32;97896.06;;;8.31;95.63
18850;BME280;4989;48.772;9.154;2023-04-07T02:01:40;97908.59;;;7.90;98.91
18850;BME280;4989;48.772;9.154;2023-04-07T02:06:49;97888.88;;;8.51;94.78
18850;BME280;4989;48.772;9.154;2023-04-07T02:12:00;97888.63;;;8.11;95.66
18850;BME280;4989;48.772;9.154;2023-04-07T02:17:09;97887.88;;;8.07;96.60
18850;BME280;4989;48.772;9.154;2023-04-07T02:22:13;97878.41;;;7.92;98.13
18850;BME280;4989;48.772;9.154;2023-04-07T02:27:17;97872.66;;;7.90;98.67
18850;BME280;4989;48.772;9.154;2023-04-07T02:32:20;97867.41;;;8.06;97.80
18850;BME280;4989;48.772;9.154;2023-04-07T02:37:22;97869.22;;;8.43;93.40
18850;BME280;4989;48.772;9.154;2023-04-07T02:42:25;97866.63;;;8.63;90.43
18850;BME280;4989;48.772;9.154;2023-04-07T02:47:29;97867.44;;;8.60;90.23
18850;BME280;4989;48.772;9.154;2023-04-07T02:52:32;97853.19;;;8.29;91.05
18850;BME280;4989;48.772;9.154;2023-04-07T02:57:37;97851.56;;;8.32;92.03
18850;BME280;4989;48.772;9.154;2023-04-07T03:02:44;97852.66;;;8.11;93.07
18850;BME280;4989;48.772;9.154;2023-04-07T03:07:49;97846.03;;;8.42;90.02
18850;BME280;4989;48.772;9.154;2023-04-07T03:12:52;97839.47;;;8.67;88.52
18850;BME280;4989;48.772;9.154;2023-04-07T03:17:55;97842.81;;;8.51;90.18
18850;BME280;4989;48.772;9.154;2023-04-07T03:22:58;97835.63;;;8.88;87.71
18850;BME280;4989;48.772;9.154;2023-04-07T03:28:03;97832.69;;;8.55;89.37
18850;BME280;4989;48.772;9.154;2023-04-07T03:33:09;97828.69;;;8.63;88.71
18850;BME280;4989;48.772;9.154;2023-04-07T03:38:12;97819.56;;;8.54;90.17
18850;BME280;4989;48.772;9.154;2023-04-07T03:43:16;97820.97;;;8.35;90.50
18850;BME280;4989;48.772;9.154;2023-04-07T03:48:19;97816.84;;;8.77;88.74
18850;BME280;4989;48.772;9.154;2023-04-07T03:53:33;97819.97;;;9.19;85.54
18850;BME280;4989;48.772;9.154;2023-04-07T03:58:44;97807.84;;;9.47;84.00
18850;BME280;4989;48.772;9.154;2023-04-07T04:03:54;97805.28;;;9.16;84.52
18850;BME280;4989;48.772;9.154;2023-04-07T04:09:05;97809.59;;;8.47;88.87
18850;BME280;4989;48.772;9.154;2023-04-07T04:14:11;97810.38;;;8.47;89.93
18850;BME280;4989;48.772;9.154;2023-04-07T04:19:15;97799.56;;;8.91;89.37
18850;BME280;4989;48.772;9.154;2023-04-07T04:24:19;97801.44;;;9.17;88.17
18850;BME280;4989;48.772;9.154;2023-04-07T04:29:23;97794.03;;;8.98;86.79
18850;BME280;4989;48.772;9.154;2023-04-07T04:34:26;97796.66;;;8.82;88.73
18850;BME280;4989;48.772;9.154;2023-04-07T04:39:30;97790.22;;;9.15;87.23
18850;BME280;4989;48.772;9.154;2023-04-07T04:44:33;97797.19;;;9.56;83.58
18850;BME280;4989;48.772;9.154;2023-04-07T04:49:38;97798.91;;;9.67;84.31
18850;BME280;4989;48.772;9.154;2023-04-07T04:54:41;97801.44;;;9.74;82.37
18850;BME280;4989;48.772;9.154;2023-04-07T04:59:45;97800.84;;;9.46;81.09
18850;BME280;4989;48.772;9.154;2023-04-07T05:04:49;97805.25;;;9.40;80.79
18850;BME280;4989;48.772;9.154;2023-04-07T05:10:03;97800.16;;;9.02;83.17
18850;BME280;4989;48.772;9.154;2023-04-07T05:15:10;97797.66;;;9.11;84.21
18850;BME280;4989;48.772;9.154;2023-04-07T05:20:13;97806.22;;;9.50;82.41
18850;BME280;4989;48.772;9.154;2023-04-07T05:25:16;97807.06;;;9.83;79.08
18850;BME280;4989;48.772;9.154;2023-04-07T05:30:21;97814.78;;;9.48;85.37
18850;BME280;4989;48.772;9.154;2023-04-07T05:35:24;97807.13;;;9.43;84.45
18850;BME280;4989;48.772;9.154;2023-04-07T05:40:30;97804.41;;;9.63;81.80
18850;BME280;4989;48.772;9.154;2023-04-07T05:45:36;97807.69;;;9.14;82.18
18850;BME280;4989;48.772;9.154;2023-04-07T05:50:40;97811.88;;;8.95;83.28
18850;BME280;4989;48.772;9.154;2023-04-07T05:55:46;97806.69;;;9.25;82.61
18850;BME280;4989;48.772;9.154;2023-04-07T06:01:09;97809.28;;;9.72;83.16
18850;BME280;4989;48.772;9.154;2023-04-07T06:06:12;97807.31;;;10.08;81.44
18850;BME280;4989;48.772;9.154;2023-04-07T06:11:14;97812.91;;;10.18;79.22
18850;BME280;4989;48.772;9.154;2023-04-07T06:16:17;97815.03;;;9.34;81.01
18850;BME280;4989;48.772;9.154;2023-04-07T06:21:21;97817.97;;;9.43;81.11
18850;BME280;4989;48.772;9.154;2023-04-07T06:26:24;97811.69;;;9.06;82.77
18850;BME280;4989;48.772;9.154;2023-04-07T06:31:26;97816.88;;;9.21;82.18
18850;BME280;4989;48.772;9.154;2023-04-07T06:36:30;97818.81;;;9.40;81.93
18850;BME280;4989;48.772;9.154;2023-04-07T06:41:33;97815.66;;;9.22;83.24
18850;BME280;4989;48.772;9.154;2023-04-07T06:46:35;97815.59;;;9.05;83.22
18850;BME280;4989;48.772;9.154;2023-04-07T06:51:38;97811.56;;;9.13;83.33
18850;BME280;4989;48.772;9.154;2023-04-07T06:56:42;97812.38;;;9.10;83.38
18850;BME280;4989;48.772;9.154;2023-04-07T07:01:44;97809.63;;;9.34;83.23
18850;BME280;4989;48.772;9.154;2023-04-07T07:06:47;97807.03;;;9.86;80.05
18850;BME280;4989;48.772;9.154;2023-04-07T07:11:50;97804.41;;;9.63;80.46
18850;BME280;4989;48.772;9.154;2023-04-07T07:16:53;97812.31;;;10.10;78.71
18850;BME280;4989;48.772;9.154;2023-04-07T07:21:56;97809.00;;;10.02;78.20
18850;BME280;4989;48.772;9.154;2023-04-07T07:26:59;97807.78;;;9.87;79.83
18850;BME280;4989;48.772;9.154;2023-04-07T07:32:03;97813.72;;;9.98;79.48
18850;BME280;4989;48.772;9.154;2023-04-07T07:37:05;97814.66;;;10.28;79.19
18850;BME280;4989;48.772;9.154;2023-04-07T07:42:08;97817.19;;;10.68;76.75
18850;BME280;4989;48.772;9.154;2023-04-07T07:47:11;97817.81;;;10.26;78.63
18850;BME280;4989;48.772;9.154;2023-04-07T07:52:14;97824.84;;;10.89;75.96
18850;BME280;4989;48.772;9.154;2023-04-07T07:57:17;97825.59;;;11.19;73.61
18850;BME280;4989;48.772;9.154;2023-04-07T08:02:19;97827.19;;;11.62;71.64
18850;BME280;4989;48.772;9.154;2023-04-07T08:07:23;97827.97;;;13.12;66.32
18850;BME280;4989;48.772;9.154;2023-04-07T08:12:26;97825.25;;;14.00;61.51
18850;BME280;4989;48.772;9.154;2023-04-07T08:17:28;97823.28;;;12.78;66.33
18850;BME280;4989;48.772;9.154;2023-04-07T08:22:32;97836.06;;;11.91;68.84
18850;BME280;4989;48.772;9.154;2023-04-07T08:27:35;97835.13;;;12.36;68.36
18850;BME280;4989;48.772;9.154;2023-04-07T08:32:40;97837.06;;;12.49;67.50
18850;BME280;4989;48.772;9.154;2023-04-07T08:37:46;97838.38;;;13.83;63.31
18850;BME280;4989;48.772;9.154;2023-04-07T08:42:49;97835.28;;;14.34;62.15
18850;BME280;4989;48.772;9.154;2023-04-07T08:47:55;97831.34;;;15.77;60.94
18850;BME280;4989;48.772;9.154;2023-04-07T08:53:06;97837.13;;;15.51;57.58
18850;BME280;4989;48.772;9.154;2023-04-07T08:58:10;97826.31;;;15.66;56.52
18850;BME280;4989;48.772;9.154;2023-04-07T09:03:16;97835.28;;;15.76;56.17
18850;BME280;4989;48.772;9.154;2023-04-07T09:08:19;97833.59;;;14.68;59.48
18850;BME280;4989;48.772;9.154;2023-04-07T09:13:23;97842.06;;;16.51;55.88
18850;BME280;4989;48.772;9.154;2023-04-07T09:18:27;97837.31;;;18.71;49.11
18850;BME280;4989;48.772;9.154;2023-04-07T09:23:36;97831.22;;;19.70;47.99
18850;BME280;4989;48.772;9.154;2023-04-07T09:28:45;97829.13;;;20.54;45.48
18850;BME280;4989;48.772;9.154;2023-04-07T09:33:49;97834.13;;;21.81;42.59
18850;BME280;4989;48.772;9.154;2023-04-07T09:38:52;97831.94;;;23.22;39.56
18850;BME280;4989;48.772;9.154;2023-04-07T09:43:56;97840.06;;;20.05;43.92
18850;BME280;4989;48.772;9.154;2023-04-07T09:49:03;97827.91;;;21.03;42.49
18850;BME280;4989;48.772;9.154;2023-04-07T09:54:08;97827.53;;;18.70;47.99
18850;BME280;4989;48.772;9.154;2023-04-07T09:59:13;97835.00;;;17.46;52.15
18850;BME280;4989;48.772;9.154;2023-04-07T10:04:17;97836.63;;;16.99;53.57
18850;BME280;4989;48.772;9.154;2023-04-07T10:09:25;97839.94;;;16.45;56.74
18850;BME280;4989;48.772;9.154;2023-04-07T10:14:30;97839.78;;;16.07;57.38
18850;BME280;4989;48.772;9.154;2023-04-07T10:19:34;97836.06;;;15.76;56.96
18850;BME280;4989;48.772;9.154;2023-04-07T10:24:59;97836.22;;;15.27;57.52
18850;BME280;4989;48.772;9.154;2023-04-07T10:30:10;97834.09;;;15.12;58.37
18850;BME280;4989;48.772;9.154;2023-04-07T10:35:15;97841.88;;;15.23;58.92
18850;BME280;4989;48.772;9.154;2023-04-07T10:51:11;97832.53;;;14.75;58.72
18850;BME280;4989;48.772;9.154;2023-04-07T10:56:15;97831.06;;;15.10;58.81
18850;BME280;4989;48.772;9.154;2023-04-07T11:01:19;97832.41;;;15.52;58.45
18850;BME280;4989;48.772;9.154;2023-04-07T11:06:22;97833.44;;;15.82;56.62
18850;BME280;4989;48.772;9.154;2023-04-07T11:11:37;97835.34;;;16.09;57.97
18850;BME280;4989;48.772;9.154;2023-04-07T11:16:41;97840.25;;;16.05;55.37
18850;BME280;4989;48.772;9.154;2023-04-07T11:21:44;97838.66;;;15.71;57.32
18850;BME280;4989;48.772;9.154;2023-04-07T11:26:47;97838.00;;;15.67;63.84
18850;BME280;4989;48.772;9.154;2023-04-07T11:31:52;97844.75;;;15.75;61.85
18850;BME280;4989;48.772;9.154;2023-04-07T11:36:54;97850.22;;;15.56;63.58
18850;BME280;4989;48.772;9.154;2023-04-07T11:42:00;97853.56;;;15.33;66.24
18850;BME280;4989;48.772;9.154;2023-04-07T11:47:03;97872.13;;;15.01;65.24
18850;BME280;4989;48.772;9.154;2023-04-07T11:52:06;97872.09;;;14.83;67.31
18850;BME280;4989;48.772;9.154;2023-04-07T11:57:09;97878.16;;;14.87;68.90
18850;BME280;4989;48.772;9.154;2023-04-07T12:02:30;97893.69;;;14.90;71.15
18850;BME280;4989;48.772;9.154;2023-04-07T12:07:34;97900.16;;;14.65;72.05
18850;BME280;4989;48.772;9.154;2023-04-07T12:12:37;97901.53;;;14.07;76.93
18850;BME280;4989;48.772;9.154;2023-04-07T12:17:47;97902.72;;;14.06;78.94
18850;BME280;4989;48.772;9.154;2023-04-07T12:22:50;97906.59;;;13.52;85.48
18850;BME280;4989;48.772;9.154;2023-04-07T12:27:54;97918.03;;;13.12;85.79
18850;BME280;4989;48.772;9.154;2023-04-07T12:32:57;97906.97;;;12.43;87.46
18850;BME280;4989;48.772;9.154;2023-04-07T12:38:00;97906.94;;;12.17;88.70
18850;BME280;4989;48.772;9.154;2023-04-07T12:43:03;97908.06;;;11.16;94.59
18850;BME280;4989;48.772;9.154;2023-04-07T12:48:06;97899.19;;;10.99;93.83
18850;BME280;4989;48.772;9.154;2023-04-07T12:53:08;97899.44;;;10.88;91.99
18850;BME280;4989;48.772;9.154;2023-04-07T12:58:11;97894.75;;;10.89;97.71
18850;BME280;4989;48.772;9.154;2023-04-07T13:03:15;97892.13;;;11.02;97.48
18850;BME280;4989;48.772;9.154;2023-04-07T13:08:18;97891.50;;;11.27;95.75
18850;BME280;4989;48.772;9.154;2023-04-07T13:13:21;97888.91;;;11.36;100.00
18850;BME280;4989;48.772;9.154;2023-04-07T13:18:24;97887.84;;;11.17;100.00
18850;BME280;4989;48.772;9.154;2023-04-07T13:23:27;97896.63;;;11.37;98.63
18850;BME280;4989;48.772;9.154;2023-04-07T13:28:30;97895.25;;;11.62;97.46
18850;BME280;4989;48.772;9.154;2023-04-07T13:33:34;97892.22;;;12.27;93.32
18850;BME280;4989;48.772;9.154;2023-04-07T13:38:36;97893.31;;;12.55;90.30
18850;BME280;4989;48.772;9.154;2023-04-07T13:43:39;97893.09;;;12.37;91.40
18850;BME280;4989;48.772;9.154;2023-04-07T13:48:42;97894.94;;;12.02;91.66
18850;BME280;4989;48.772;9.154;2023-04-07T13:53:45;97887.59;;;11.57;95.04
18850;BME280;4989;48.772;9.154;2023-04-07T13:58:48;97886.34;;;11.45;97.08
18850;BME280;4989;48.772;9.154;2023-04-07T14:03:51;97887.59;;;11.57;100.00
18850;BME280;4989;48.772;9.154;2023-04-07T14:08:54;97882.06;;;11.89;93.94
18850;BME280;4989;48.772;9.154;2023-04-07T14:13:57;97883.81;;;11.96;90.93
18850;BME280;4989;48.772;9.154;2023-04-07T14:19:00;97888.28;;;12.03;92.42
18850;BME280;4989;48.772;9.154;2023-04-07T14:24:02;97884.38;;;12.55;91.18
18850;BME280;4989;48.772;9.154;2023-04-07T14:29:05;97884.28;;;12.46;85.81
18850;BME280;4989;48.772;9.154;2023-04-07T14:34:08;97879.03;;;12.13;89.05
18850;BME280;4989;48.772;9.154;2023-04-07T14:39:10;97880.09;;;12.03;87.62
18850;BME280;4989;48.772;9.154;2023-04-07T14:44:14;97882.22;;;12.37;90.74
18850;BME280;4989;48.772;9.154;2023-04-07T14:49:16;97886.78;;;12.40;86.58
18850;BME280;4989;48.772;9.154;2023-04-07T14:54:19;97884.69;;;12.06;89.97
18850;BME280;4989;48.772;9.154;2023-04-07T14:59:23;97884.63;;;12.48;90.00
18850;BME280;4989;48.772;9.154;2023-04-07T15:04:25;97882.56;;;13.12;84.60
18850;BME280;4989;48.772;9.154;2023-04-07T15:09:28;97887.47;;;13.17;80.22
18850;BME280;4989;48.772;9.154;2023-04-07T15:14:31;97892.88;;;13.43;75.86
18850;BME280;4989;48.772;9.154;2023-04-07T15:19:34;97887.78;;;13.76;74.23
18850;BME280;4989;48.772;9.154;2023-04-07T15:24:36;97891.94;;;13.81;75.19
18850;BME280;4989;48.772;9.154;2023-04-07T15:29:38;97883.75;;;13.81;71.61
18850;BME280;4989;48.772;9.154;2023-04-07T15:34:43;97888.38;;;13.93;73.17
18850;BME280;4989;48.772;9.154;2023-04-07T15:39:46;97889.41;;;14.17;74.81
18850;BME280;4989;48.772;9.154;2023-04-07T15:44:49;97890.84;;;14.53;72.94
18850;BME280;4989;48.772;9.154;2023-04-07T15:49:52;97901.22;;;14.68;72.60
18850;BME280;4989;48.772;9.154;2023-04-07T15:54:55;97907.38;;;14.99;70.59
18850;BME280;4989;48.772;9.154;2023-04-07T15:59:57;97906.06;;;14.32;71.56
18850;BME280;4989;48.772;9.154;2023-04-07T16:05:01;97911.28;;;14.17;72.90
18850;BME280;4989;48.772;9.154;2023-04-07T16:10:04;97901.75;;;14.22;73.72
18850;BME280;4989;48.772;9.154;2023-04-07T16:15:09;97911.94;;;14.00;73.23
18850;BME280;4989;48.772;9.154;2023-04-07T16:20:13;97915.44;;;14.00;74.34
18850;BME280;4989;48.772;9.154;2023-04-07T16:25:16;97919.63;;;14.45;71.86
18850;BME280;4989;48.772;9.154;2023-04-07T16:30:20;97927.31;;;14.06;71.36
18850;BME280;4989;48.772;9.154;2023-04-07T16:35:23;97925.53;;;14.12;72.65
18850;BME280;4989;48.772;9.154;2023-04-07T16:40:26;97932.03;;;14.06;73.48
18850;BME280;4989;48.772;9.154;2023-04-07T16:45:29;97937.75;;;13.98;75.24
18850;BME280;4989;48.772;9.154;2023-04-07T16:50:31;97941.41;;;13.83;75.09
18850;BME280;4989;48.772;9.154;2023-04-07T16:55:37;97944.59;;;13.81;75.34
18850;BME280;4989;48.772;9.154;2023-04-07T17:00:40;97950.81;;;13.82;74.79
18850;BME280;4989;48.772;9.154;2023-04-07T17:05:42;97956.84;;;13.77;74.34
18850;BME280;4989;48.772;9.154;2023-04-07T17:10:49;97963.84;;;13.56;74.11
18850;BME280;4989;48.772;9.154;2023-04-07T17:15:53;97970.13;;;13.05;77.27
18850;BME280;4989;48.772;9.154;2023-04-07T17:20:56;97969.91;;;12.74;78.44
18850;BME280;4989;48.772;9.154;2023-04-07T17:25:58;97984.63;;;12.51;85.26
18850;BME280;4989;48.772;9.154;2023-04-07T17:31:01;97982.28;;;12.24;89.57
18850;BME280;4989;48.772;9.154;2023-04-07T17:36:04;97988.94;;;12.35;91.89
18850;BME280;4989;48.772;9.154;2023-04-07T17:41:07;97995.53;;;12.76;86.84
18850;BME280;4989;48.772;9.154;2023-04-07T17:46:09;98007.97;;;13.03;82.07
18850;BME280;4989;48.772;9.154;2023-04-07T17:51:12;98005.25;;;13.16;80.65
18850;BME280;4989;48.772;9.154;2023-04-07T17:56:15;98019.00;;;13.12;80.54
18850;BME280;4989;48.772;9.154;2023-04-07T18:01:18;98020.22;;;13.11;81.28
18850;BME280;4989;48.772;9.154;2023-04-07T18:06:21;98027.19;;;13.12;78.83
18850;BME280;4989;48.772;9.154;2023-04-07T18:11:24;98042.25;;;13.04;79.15
18850;BME280;4989;48.772;9.154;2023-04-07T18:16:26;98039.63;;;13.00;78.29
18850;BME280;4989;48.772;9.154;2023-04-07T18:21:29;98053.78;;;12.82;77.72
18850;BME280;4989;48.772;9.154;2023-04-07T18:26:33;98056.41;;;12.73;78.22
18850;BME280;4989;48.772;9.154;2023-04-07T18:31:39;98066.81;;;12.49;76.81
18850;BME280;4989;48.772;9.154;2023-04-07T18:36:45;98076.88;;;12.23;78.96
18850;BME280;4989;48.772;9.154;2023-04-07T18:41:49;98081.19;;;11.91;80.57
18850;BME280;4989;48.772;9.154;2023-04-07T18:46:52;98087.81;;;12.07;79.17
18850;BME280;4989;48.772;9.154;2023-04-07T18:51:55;98092.22;;;12.17;78.52
18850;BME280;4989;48.772;9.154;2023-04-07T18:56:58;98118.78;;;12.13;78.68
18850;BME280;4989;48.772;9.154;2023-04-07T19:02:01;98112.41;;;12.20;79.08
18850;BME280;4989;48.772;9.154;2023-04-07T19:07:04;98115.03;;;12.07;79.88
18850;BME280;4989;48.772;9.154;2023-04-07T19:12:06;98122.81;;;12.08;79.83
18850;BME280;4989;48.772;9.154;2023-04-07T19:17:10;98131.31;;;11.78;81.95
18850;BME280;4989;48.772;9.154;2023-04-07T19:22:13;98138.38;;;11.91;81.56
18850;BME280;4989;48.772;9.154;2023-04-07T19:27:16;98130.22;;;12.08;80.21
18850;BME280;4989;48.772;9.154;2023-04-07T19:32:19;98139.09;;;11.96;79.89
18850;BME280;4989;48.772;9.154;2023-04-07T19:37:22;98135.91;;;11.97;79.68
18850;BME280;4989;48.772;9.154;2023-04-07T19:42:25;98144.28;;;11.90;80.71
18850;BME280;4989;48.772;9.154;2023-04-07T19:47:30;98137.53;;;11.95;80.49
18850;BME280;4989;48.772;9.154;2023-04-07T19:52:33;98144.69;;;12.05;80.98
18850;BME280;4989;48.772;9.154;2023-04-07T19:57:35;98151.00;;;12.02;81.01
18850;BME280;4989;48.772;9.154;2023-04-07T20:02:38;98161.19;;;11.98;81.43
18850;BME280;4989;48.772;9.154;2023-04-07T20:07:41;98163.50;;;11.99;83.16
18850;BME280;4989;48.772;9.154;2023-04-07T20:12:43;98159.63;;;11.64;83.97
18850;BME280;4989;48.772;9.154;2023-04-07T20:17:46;98163.00;;;11.52;86.33
18850;BME280;4989;48.772;9.154;2023-04-07T20:22:49;98168.63;;;11.44;85.97
18850;BME280;4989;48.772;9.154;2023-04-07T20:27:52;98177.56;;;11.25;87.04
18850;BME280;4989;48.772;9.154;2023-04-07T20:32:55;98175.75;;;11.38;87.84
18850;BME280;4989;48.772;9.154;2023-04-07T20:37:58;98183.00;;;11.25;87.28
18850;BME280;4989;48.772;9.154;2023-04-07T20:43:02;98174.72;;;11.12;90.94
18850;BME280;4989;48.772;9.154;2023-04-07T20:48:05;98185.41;;;11.23;89.59
18850;BME280;4989;48.772;9.154;2023-04-07T20:53:08;98187.38;;;11.03;89.34
18850;BME280;4989;48.772;9.154;2023-04-07T20:58:11;98186.81;;;10.91;90.33
18850;BME280;4989;48.772;9.154;2023-04-07T21:03:15;98189.03;;;10.76;91.62
18850;BME280;4989;48.772;9.154;2023-04-07T21:08:18;98194.31;;;10.64;92.54
18850;BME280;4989;48.772;9.154;2023-04-07T21:13:26;98197.31;;;10.69;93.65
18850;BME280;4989;48.772;9.154;2023-04-07T21:18:30;98195.66;;;10.75;92.03
18850;BME280;4989;48.772;9.154;2023-04-07T21:23:33;98199.91;;;10.96;91.79
18850;BME280;4989;48.772;9.154;2023-04-07T21:28:35;98205.84;;;11.11;90.29
18850;BME280;4989;48.772;9.154;2023-04-07T21:33:38;98200.75;;;11.13;88.75
18850;BME280;4989;48.772;9.154;2023-04-07T21:38:41;98207.53;;;11.05;91.12
18850;BME280;4989;48.772;9.154;2023-04-07T21:43:43;98204.59;;;10.96;90.67
18850;BME280;4989;48.772;9.154;2023-04-07T21:48:46;98207.44;;;11.09;91.28
18850;BME280;4989;48.772;9.154;2023-04-07T21:53:51;98202.06;;;11.25;88.53
18850;BME280;4989;48.772;9.154;2023-04-07T21:58:54;98208.91;;;11.33;88.04
18850;BME280;4989;48.772;9.154;2023-04-07T22:03:56;98200.88;;;11.26;90.93
18850;BME280;4989;48.772;9.154;2023-04-07T22:08:59;98205.97;;;11.44;88.22
18850;BME280;4989;48.772;9.154;2023-04-07T22:14:03;98198.03;;;11.50;87.86
18850;BME280;4989;48.772;9.154;2023-04-07T22:19:06;98209.19;;;11.55;88.05
18850;BME280;4989;48.772;9.154;2023-04-07T22:24:08;98202.34;;;11.67;87.22
18850;BME280;4989;48.772;9.154;2023-04-07T22:29:11;98208.47;;;11.71;86.95
18850;BME280;4989;48.772;9.154;2023-04-07T22:34:14;98212.06;;;11.68;86.53
18850;BME280;4989;48.772;9.154;2023-04-07T22:39:17;98214.06;;;11.64;86.83
18850;BME280;4989;48.772;9.154;2023-04-07T22:44:19;98212.06;;;11.68;88.15
18850;BME280;4989;48.772;9.154;2023-04-07T22:49:22;98217.81;;;11.54;89.11
18850;BME280;4989;48.772;9.154;2023-04-07T22:54:25;98226.09;;;11.46;89.13
18850;BME280;4989;48.772;9.154;2023-04-07T22:59:27;98229.25;;;11.45;90.41
18850;BME280;4989;48.772;9.154;2023-04-07T23:04:30;98216.75;;;11.48;89.63
18850;BME280;4989;48.772;9.154;2023-04-07T23:09:33;98228.28;;;11.15;91.71
18850;BME280;4989;48.772;9.154;2023-04-07T23:14:35;98228.44;;;11.08;94.84
18850;BME280;4989;48.772;9.154;2023-04-07T23:19:38;98231.44;;;11.14;93.65
18850;BME280;4989;48.772;9.154;2023-04-07T23:24:40;98228.72;;;11.14;93.23
18850;BME280;4989;48.772;9.154;2023-04-07T23:29:43;98227.88;;;11.37;91.36
18850;BME280;4989;48.772;9.154;2023-04-07T23:34:46;98239.38;;;11.44;92.06
18850;BME280;4989;48.772;9.154;2023-04-07T23:39:48;98242.13;;;11.61;91.23
18850;BME280;4989;48.772;9.154;2023-04-07T23:44:51;98236.78;;;11.57;90.70
18850;BME280;4989;48.772;9.154;2023-04-07T23:49:54;98239.78;;;11.63;89.62
18850;BME280;4989;48.772;9.154;2023-04-07T23:54:56;98237.69;;;11.51;89.90
18850;BME280;4989;48.772;9.154;2023-04-07T23:59:59;98237.84;;;11.43;92.05
